createdAt,value
2022-12-31T00:12:48.304Z,85.5
2022-12-31T00:32:48.320Z,84.3
2022-12-31T00:52:48.372Z,81.6
2022-12-31T01:12:48.349Z,78.2
2022-12-31T01:52:48.300Z,76.0
2022-12-31T02:12:48.287Z,75.6
2022-12-31T02:32:48.297Z,75.8
2022-12-31T02:52:48.206Z,75.8
2022-12-31T03:12:48.220Z,75.1
2022-12-31T03:32:48.229Z,75.9
2022-12-31T03:52:48.183Z,76.1
2022-12-31T04:12:48.204Z,77.9
2022-12-31T04:32:48.138Z,75.0
2022-12-31T04:52:48.157Z,73.5
2022-12-31T05:12:48.182Z,72.3
2022-12-31T05:32:48.086Z,72.3
2022-12-31T05:52:48.106Z,73.1
2022-12-31T06:12:48.156Z,75.2
2022-12-31T06:32:48.028Z,77.1
2022-12-31T06:52:48.038Z,76.3
2022-12-31T07:12:48.049Z,78.4
2022-12-31T07:32:48.085Z,81.9
2022-12-31T07:52:48.129Z,80.5
2022-12-31T08:12:48.032Z,81.3
2022-12-31T08:32:48.015Z,84.2
2022-12-31T08:52:47.943Z,82.0
2022-12-31T09:12:47.957Z,80.2
2022-12-31T09:32:47.963Z,81.0
2022-12-31T09:52:47.940Z,81.9
2022-12-31T10:12:47.900Z,76.3
2022-12-31T10:32:47.918Z,72.2
2022-12-31T10:52:47.841Z,72.9
2022-12-31T11:12:47.854Z,75.1
2022-12-31T11:32:47.864Z,78.1
2022-12-31T11:52:47.788Z,81.8
2022-12-31T12:12:47.819Z,80.2
2022-12-31T12:32:47.880Z,77.2
2022-12-31T12:52:47.754Z,77.1
2022-12-31T13:12:47.768Z,76.4
2022-12-31T13:32:47.735Z,76.9
2022-12-31T13:52:47.824Z,74.0
2022-12-31T14:12:47.738Z,77.9
2022-12-31T14:32:47.651Z,81.7
2022-12-31T14:52:47.681Z,83.3
2022-12-31T15:12:47.831Z,84.9
2022-12-31T15:32:47.624Z,86.2
2022-12-31T15:52:47.656Z,87.3
2022-12-31T16:12:47.759Z,88.6
2022-12-31T16:32:47.602Z,90.3
2022-12-31T16:52:47.595Z,90.2
2022-12-31T17:12:47.601Z,90.7
2022-12-31T17:32:47.642Z,90.6
2022-12-31T17:52:47.549Z,90.4
2022-12-31T18:12:47.557Z,89.9
2022-12-31T18:32:47.599Z,89.1
2022-12-31T18:52:47.591Z,88.6
2022-12-31T19:12:47.501Z,89.2
2022-12-31T19:32:47.565Z,89.2
2022-12-31T19:52:47.534Z,90.0
2022-12-31T20:12:47.747Z,90.3
2022-12-31T20:32:47.576Z,90.6
2022-12-31T20:52:47.487Z,90.6
2022-12-31T21:12:47.524Z,90.9
2022-12-31T21:32:47.533Z,91.2
2022-12-31T21:52:47.544Z,91.4
2022-12-31T22:12:47.480Z,91.6
2022-12-31T22:32:47.487Z,91.5
2022-12-31T22:52:47.609Z,91.2
2022-12-31T23:12:47.523Z,91.2
2022-12-31T23:32:47.592Z,91.5
2022-12-31T23:52:47.491Z,91.8
